createdAt,value
2019-06-08T00:00:20.715Z,0.00
2019-06-08T00:01:20.594Z,0.00
2019-06-08T00:02:20.591Z,0.00
2019-06-08T00:03:20.441Z,0.00
2019-06-08T00:04:20.590Z,0.00
2019-06-08T00:05:20.934Z,0.00
2019-06-08T00:06:19.315Z,0.00
2019-06-08T00:07:20.794Z,0.00
2019-06-08T00:08:19.309Z,0.00
2019-06-08T00:09:20.867Z,0.00
2019-06-08T00:10:22.758Z,0.00
2019-06-08T00:11:21.159Z,0.00
2019-06-08T00:12:19.251Z,0.00
2019-06-08T00:13:19.759Z,0.00
2019-06-08T00:14:21.387Z,0.00
2019-06-08T00:15:20.293Z,0.00
2019-06-08T00:16:19.760Z,0.00
2019-06-08T00:17:37.059Z,0.00
2019-06-08T00:18:21.432Z,0.00
2019-06-08T00:19:19.420Z,0.00
2019-06-08T00:20:21.764Z,0.00
2019-06-08T00:21:19.672Z,0.00
2019-06-08T00:22:19.774Z,0.00
2019-06-08T00:23:20.087Z,0.00
2019-06-08T00:24:19.872Z,0.00
2019-06-08T00:25:20.789Z,0.00
2019-06-08T00:26:20.069Z,0.00
2019-06-08T00:27:20.207Z,0.00
2019-06-08T00:28:20.318Z,0.00
2019-06-08T00:29:20.278Z,0.00
2019-06-08T00:30:19.040Z,0.00
2019-06-08T00:31:20.090Z,0.00
2019-06-08T00:32:20.349Z,0.00
2019-06-08T00:33:19.060Z,0.00
2019-06-08T00:34:19.007Z,0.00
2019-06-08T00:35:19.086Z,0.00
2019-06-08T00:36:18.990Z,0.00
2019-06-08T00:37:19.033Z,0.00
2019-06-08T00:38:18.971Z,0.00
2019-06-08T00:39:19.237Z,0.00
2019-06-08T00:40:18.979Z,0.00
2019-06-08T00:41:20.678Z,0.00
2019-06-08T00:42:19.326Z,0.00
2019-06-08T00:43:19.183Z,0.00
2019-06-08T00:44:19.242Z,0.00
2019-06-08T00:45:20.019Z,0.00
2019-06-08T00:46:19.345Z,0.00
2019-06-08T00:47:18.933Z,0.00
2019-06-08T00:48:19.543Z,0.00
2019-06-08T00:49:18.860Z,0.00
2019-06-08T00:50:18.945Z,0.00
2019-06-08T00:51:19.121Z,0.00
2019-06-08T00:52:19.328Z,0.00
2019-06-08T00:53:19.760Z,0.00
2019-06-08T00:54:19.308Z,0.00
2019-06-08T00:55:19.470Z,0.00
2019-06-08T00:56:19.442Z,0.00
2019-06-08T00:57:19.681Z,0.00
2019-06-08T00:58:20.364Z,0.00
2019-06-08T00:59:19.939Z,0.00
2019-06-08T01:00:20.283Z,0.00
2019-06-08T01:01:20.782Z,0.00
2019-06-08T01:02:18.710Z,0.00
2019-06-08T01:03:19.613Z,0.00
2019-06-08T01:04:18.700Z,0.00
2019-06-08T01:05:19.871Z,0.00
2019-06-08T01:06:18.867Z,0.00
2019-06-08T01:07:19.875Z,0.00
2019-06-08T01:08:20.219Z,0.00
2019-06-08T01:09:18.629Z,0.00
2019-06-08T01:10:19.227Z,0.00
2019-06-08T01:11:18.692Z,0.00
2019-06-08T01:12:18.740Z,0.00
2019-06-08T01:13:18.839Z,0.00
2019-06-08T01:14:18.932Z,0.00
2019-06-08T01:15:23.543Z,0.00
2019-06-08T01:16:20.835Z,0.00
2019-06-08T01:17:19.309Z,0.00
2019-06-08T01:18:20.725Z,0.00
2019-06-08T01:19:19.178Z,0.00
2019-06-08T01:20:19.471Z,0.00
2019-06-08T01:21:19.425Z,0.00
2019-06-08T01:22:19.498Z,0.00
2019-06-08T01:23:19.515Z,0.00
2019-06-08T01:24:19.675Z,0.00
2019-06-08T01:25:20.117Z,0.00
2019-06-08T01:26:19.697Z,0.00
2019-06-08T01:27:19.869Z,0.00
2019-06-08T01:28:19.850Z,0.00
2019-06-08T01:29:18.433Z,0.00
2019-06-08T01:30:18.431Z,0.00
2019-06-08T01:31:18.403Z,0.00
2019-06-08T01:32:18.425Z,0.00
2019-06-08T01:33:18.416Z,0.00
2019-06-08T01:34:18.420Z,0.00
2019-06-08T01:35:18.358Z,0.00
2019-06-08T01:36:18.348Z,0.00
2019-06-08T01:37:18.628Z,0.00
2019-06-08T01:38:18.358Z,0.00
2019-06-08T01:39:18.331Z,0.00
2019-06-08T01:40:18.360Z,0.00
2019-06-08T01:41:18.298Z,0.00
2019-06-08T01:42:18.287Z,0.00
2019-06-08T01:43:18.286Z,0.00
2019-06-08T01:44:19.639Z,0.00
2019-06-08T01:45:18.262Z,0.00
2019-06-08T01:46:18.278Z,0.00
2019-06-08T01:47:18.239Z,0.00
2019-06-08T01:48:20.335Z,0.00
2019-06-08T01:49:18.217Z,0.00
2019-06-08T01:50:18.209Z,0.00
2019-06-08T01:51:18.521Z,0.00
2019-06-08T01:52:18.225Z,0.00
2019-06-08T01:53:18.174Z,0.00
2019-06-08T01:54:18.427Z,0.00
2019-06-08T01:55:18.164Z,0.00
2019-06-08T01:56:18.138Z,0.00
2019-06-08T01:57:18.129Z,0.00
2019-06-08T01:58:19.046Z,0.00
2019-06-08T01:59:18.108Z,0.00
2019-06-08T02:01:40.096Z,0.00
2019-06-08T02:02:39.483Z,0.00
2019-06-08T02:03:39.474Z,0.00
2019-06-08T02:04:39.456Z,0.00
2019-06-08T02:05:39.497Z,0.00
2019-06-08T02:06:39.437Z,0.00
2019-06-08T02:07:39.766Z,0.00
2019-06-08T02:08:39.434Z,0.00
2019-06-08T02:09:39.405Z,0.00
2019-06-08T02:10:39.395Z,0.00
2019-06-08T02:11:39.417Z,0.00
2019-06-08T02:12:39.378Z,0.00
2019-06-08T02:13:39.411Z,0.00
2019-06-08T02:14:39.636Z,0.00
2019-06-08T02:15:39.345Z,0.00
2019-06-08T02:16:39.406Z,0.00
2019-06-08T02:17:39.335Z,0.00
2019-06-08T02:18:50.553Z,0.00
2019-06-08T02:19:40.345Z,0.00
2019-06-08T02:20:39.401Z,0.00
2019-06-08T02:21:39.567Z,0.00
2019-06-08T02:22:39.439Z,0.00
2019-06-08T02:23:39.681Z,0.00
2019-06-08T02:24:39.619Z,0.00
2019-06-08T02:25:39.622Z,0.00
2019-06-08T02:26:39.767Z,0.00
2019-06-08T02:27:39.765Z,0.00
2019-06-08T02:28:40.195Z,0.00
2019-06-08T02:29:39.942Z,0.00
2019-06-08T02:30:41.672Z,0.00
2019-06-08T02:31:39.737Z,0.00
2019-06-08T02:32:40.575Z,0.00
2019-06-08T02:33:40.472Z,0.00
2019-06-08T02:34:40.627Z,0.00
2019-06-08T02:35:39.437Z,0.00
2019-06-08T02:36:40.713Z,0.00
2019-06-08T02:37:39.966Z,0.00
2019-06-08T02:38:39.705Z,0.00
2019-06-08T02:39:39.991Z,0.00
2019-06-08T02:40:40.224Z,0.00
2019-06-08T02:41:40.001Z,0.00
2019-06-08T02:42:40.220Z,0.00
2019-06-08T02:43:40.301Z,0.00
2019-06-08T02:44:40.641Z,0.00
2019-06-08T02:45:40.478Z,0.00
2019-06-08T02:46:40.401Z,0.00
2019-06-08T02:47:40.921Z,0.00
2019-06-08T02:49:00.120Z,0.00
2019-06-08T02:49:40.049Z,0.00
2019-06-08T02:50:39.056Z,0.00
2019-06-08T02:51:38.971Z,0.00
2019-06-08T02:52:40.812Z,0.00
2019-06-08T02:53:38.961Z,0.00
2019-06-08T02:54:39.813Z,0.00
2019-06-08T02:55:39.508Z,0.00
2019-06-08T02:56:41.034Z,0.00
2019-06-08T02:57:39.876Z,0.00
2019-06-08T02:58:40.819Z,0.00
2019-06-08T02:59:40.935Z,0.00
2019-06-08T03:00:39.531Z,0.00
2019-06-08T03:01:40.633Z,0.00
2019-06-08T03:02:40.458Z,0.00
2019-06-08T03:03:40.267Z,0.00
2019-06-08T03:04:40.763Z,0.00
2019-06-08T03:05:40.461Z,0.00
2019-06-08T03:06:41.151Z,0.00
2019-06-08T03:07:41.208Z,0.00
2019-06-08T03:08:41.193Z,0.00
2019-06-08T03:09:38.793Z,0.00
2019-06-08T03:10:39.328Z,0.00
2019-06-08T03:11:39.271Z,0.00
2019-06-08T03:12:40.366Z,5.62
2019-06-08T03:13:40.356Z,5.62
2019-06-08T03:14:39.687Z,5.62
2019-06-08T03:15:40.824Z,5.62
2019-06-08T03:16:41.108Z,5.62
2019-06-08T03:17:40.134Z,5.62
2019-06-08T03:18:40.088Z,5.62
2019-06-08T03:19:40.098Z,5.62
2019-06-08T03:20:40.103Z,5.62
2019-06-08T03:21:40.381Z,5.62
2019-06-08T03:22:41.219Z,5.62
2019-06-08T03:23:39.364Z,5.62
2019-06-08T03:24:38.845Z,5.62
2019-06-08T03:25:47.276Z,5.62
2019-06-08T03:26:41.406Z,5.62
2019-06-08T03:27:39.283Z,11.25
2019-06-08T03:28:39.946Z,11.25
2019-06-08T03:29:39.051Z,11.25
2019-06-08T03:30:45.466Z,11.25
2019-06-08T03:31:47.791Z,11.25
2019-06-08T03:32:47.302Z,16.88
2019-06-08T03:33:49.170Z,16.88
2019-06-08T03:34:45.993Z,16.88
2019-06-08T03:35:50.955Z,16.88
2019-06-08T03:36:49.850Z,16.88
2019-06-08T03:37:40.026Z,16.88
2019-06-08T03:38:40.236Z,16.88
2019-06-08T03:39:38.929Z,16.88
2019-06-08T03:40:40.401Z,16.88
2019-06-08T03:41:40.282Z,16.88
2019-06-08T03:42:38.434Z,16.88
2019-06-08T03:43:40.713Z,16.88
2019-06-08T03:44:38.516Z,16.88
2019-06-08T03:45:38.434Z,16.88
2019-06-08T03:46:38.858Z,16.88
2019-06-08T03:47:39.166Z,16.88
2019-06-08T03:48:40.064Z,16.88
2019-06-08T03:49:48.780Z,16.88
2019-06-08T03:50:40.231Z,16.88
2019-06-08T03:51:41.816Z,16.88
2019-06-08T03:52:39.860Z,16.88
2019-06-08T03:53:40.040Z,16.88
2019-06-08T03:54:40.489Z,16.88
2019-06-08T03:55:40.219Z,22.50
2019-06-08T03:56:40.115Z,22.50
2019-06-08T03:57:40.315Z,22.50
2019-06-08T03:58:38.979Z,22.50
2019-06-08T03:59:38.731Z,22.50
2019-06-08T04:00:38.325Z,28.12
2019-06-08T04:01:39.784Z,22.50
2019-06-08T04:02:39.795Z,28.12
2019-06-08T04:03:39.998Z,28.12
2019-06-08T04:04:39.815Z,28.12
2019-06-08T04:05:40.239Z,28.12
2019-06-08T04:06:39.758Z,28.12
2019-06-08T04:07:39.806Z,28.12
2019-06-08T04:08:40.229Z,28.12
2019-06-08T04:09:39.811Z,28.12
2019-06-08T04:10:39.723Z,28.12
2019-06-08T04:11:39.958Z,33.75
2019-06-08T04:12:39.742Z,33.75
2019-06-08T04:13:39.766Z,33.75
2019-06-08T04:14:39.733Z,33.75
2019-06-08T04:15:40.153Z,33.75
2019-06-08T04:16:40.201Z,33.75
2019-06-08T04:17:39.689Z,33.75
2019-06-08T04:18:38.673Z,33.75
2019-06-08T04:19:39.635Z,39.38
2019-06-08T04:20:38.115Z,39.38
2019-06-08T04:21:38.035Z,39.38
2019-06-08T04:22:38.052Z,39.38
2019-06-08T04:23:40.294Z,39.38
2019-06-08T04:24:38.106Z,39.38
2019-06-08T04:25:38.373Z,39.38
2019-06-08T04:26:38.543Z,33.75
2019-06-08T04:27:38.503Z,33.75
2019-06-08T04:28:38.306Z,33.75
2019-06-08T04:29:39.469Z,33.75
2019-06-08T04:30:38.687Z,33.75
2019-06-08T04:31:39.602Z,33.75
2019-06-08T04:32:38.578Z,28.12
2019-06-08T04:33:37.985Z,28.12
2019-06-08T04:34:38.715Z,28.12
2019-06-08T04:35:38.235Z,28.12
2019-06-08T04:36:38.947Z,28.12
2019-06-08T04:37:38.403Z,28.12
2019-06-08T04:38:39.033Z,33.75
2019-06-08T04:39:38.387Z,33.75
2019-06-08T04:40:39.428Z,33.75
2019-06-08T04:41:38.513Z,39.38
2019-06-08T04:42:39.329Z,33.75
2019-06-08T04:43:40.002Z,39.38
2019-06-08T04:44:38.503Z,39.38
2019-06-08T04:45:38.726Z,39.38
2019-06-08T04:46:38.236Z,45.00
2019-06-08T04:47:38.463Z,56.25
2019-06-08T04:48:38.641Z,56.25
2019-06-08T04:49:38.496Z,61.88
2019-06-08T04:50:38.701Z,61.88
2019-06-08T04:51:38.854Z,61.88
2019-06-08T04:52:38.884Z,61.88
2019-06-08T04:53:38.547Z,67.50
2019-06-08T04:54:38.950Z,67.50
2019-06-08T04:55:38.811Z,67.50
2019-06-08T04:56:38.580Z,73.12
2019-06-08T04:57:39.400Z,73.12
2019-06-08T04:58:39.812Z,73.12
2019-06-08T04:59:38.984Z,73.12
2019-06-08T05:00:39.087Z,73.12
2019-06-08T05:01:38.856Z,73.12
2019-06-08T05:02:39.357Z,73.12
2019-06-08T05:03:39.053Z,78.75
2019-06-08T05:04:38.902Z,78.75
2019-06-08T05:05:39.168Z,78.75
2019-06-08T05:06:38.987Z,78.75
2019-06-08T05:07:39.149Z,84.38
2019-06-08T05:08:38.920Z,84.38
2019-06-08T05:09:39.001Z,84.38
2019-06-08T05:10:39.084Z,84.38
2019-06-08T05:11:38.942Z,90.00
2019-06-08T05:12:39.060Z,95.62
2019-06-08T05:13:39.043Z,101.25
2019-06-08T05:14:38.986Z,106.88
2019-06-08T05:15:38.988Z,112.50
2019-06-08T05:16:39.007Z,123.75
2019-06-08T05:17:39.137Z,118.12
2019-06-08T05:18:39.117Z,118.12
2019-06-08T05:19:39.132Z,118.12
2019-06-08T05:20:39.309Z,118.12
2019-06-08T05:21:37.406Z,118.12
2019-06-08T05:22:37.394Z,118.12
2019-06-08T05:23:39.254Z,101.25
2019-06-08T05:24:37.366Z,118.12
2019-06-08T05:25:38.993Z,95.62
2019-06-08T05:26:37.346Z,90.00
2019-06-08T05:27:37.344Z,106.88
2019-06-08T05:28:37.325Z,123.75
2019-06-08T05:29:37.327Z,101.25
2019-06-08T05:30:37.316Z,84.38
2019-06-08T05:31:37.708Z,112.50
2019-06-08T05:32:37.291Z,123.75
2019-06-08T05:33:37.274Z,123.75
2019-06-08T05:34:37.266Z,123.75
2019-06-08T05:35:37.258Z,95.62
2019-06-08T05:36:37.243Z,101.25
2019-06-08T05:37:37.286Z,123.75
2019-06-08T05:38:37.517Z,84.38
2019-06-08T05:39:37.208Z,101.25
2019-06-08T05:40:37.290Z,95.62
2019-06-08T05:41:37.276Z,84.38
2019-06-08T05:42:37.177Z,84.38
2019-06-08T05:43:37.215Z,129.38
2019-06-08T05:44:37.158Z,95.62
2019-06-08T05:45:37.435Z,106.88
2019-06-08T05:46:37.143Z,112.50
2019-06-08T05:47:37.133Z,135.00
2019-06-08T05:48:37.595Z,106.88
2019-06-08T05:49:37.155Z,95.62
2019-06-08T05:50:37.098Z,95.62
2019-06-08T05:51:37.094Z,90.00
2019-06-08T05:52:37.077Z,90.00
2019-06-08T05:53:37.083Z,112.50
2019-06-08T05:54:37.055Z,118.12
2019-06-08T05:55:37.091Z,112.50
2019-06-08T05:56:37.035Z,106.88
2019-06-08T05:57:37.022Z,112.50
2019-06-08T05:58:37.005Z,84.38
2019-06-08T05:59:37.007Z,78.75
2019-06-08T06:00:37.067Z,73.12
2019-06-08T06:01:37.015Z,73.12
2019-06-08T06:02:36.975Z,73.12
2019-06-08T06:03:36.965Z,67.50
2019-06-08T06:04:37.230Z,67.50
2019-06-08T06:05:36.935Z,61.88
2019-06-08T06:06:36.965Z,61.88
2019-06-08T06:07:37.021Z,61.88
2019-06-08T06:08:37.626Z,67.50
2019-06-08T06:09:36.894Z,73.12
2019-06-08T06:10:37.173Z,73.12
2019-06-08T06:11:36.879Z,73.12
2019-06-08T06:12:36.865Z,73.12
2019-06-08T06:13:36.918Z,78.75
2019-06-08T06:14:37.040Z,78.75
2019-06-08T06:15:36.843Z,78.75
2019-06-08T06:16:36.827Z,73.12
2019-06-08T06:17:36.814Z,67.50
2019-06-08T06:18:36.796Z,67.50
2019-06-08T06:19:36.824Z,67.50
2019-06-08T06:20:36.789Z,73.12
2019-06-08T06:21:36.766Z,73.12
2019-06-08T06:22:37.154Z,73.12
2019-06-08T06:23:36.744Z,73.12
2019-06-08T06:24:36.736Z,78.75
2019-06-08T06:25:36.765Z,73.12
2019-06-08T06:26:36.724Z,73.12
2019-06-08T06:27:36.715Z,67.50
2019-06-08T06:28:36.705Z,61.88
2019-06-08T06:29:36.683Z,67.50
2019-06-08T06:30:36.683Z,67.50
2019-06-08T06:31:37.267Z,67.50
2019-06-08T06:32:36.655Z,67.50
2019-06-08T06:33:36.645Z,73.12
2019-06-08T06:34:36.914Z,73.12
2019-06-08T06:35:36.631Z,73.12
2019-06-08T06:36:36.627Z,73.12
2019-06-08T06:37:36.634Z,67.50
2019-06-08T06:38:36.597Z,61.88
2019-06-08T06:39:36.574Z,61.88
2019-06-08T06:40:36.571Z,67.50
2019-06-08T06:41:36.557Z,67.50
2019-06-08T06:42:36.553Z,73.12
2019-06-08T06:43:36.573Z,73.12
2019-06-08T06:44:36.600Z,78.75
2019-06-08T06:45:36.526Z,84.38
2019-06-08T06:46:36.506Z,84.38
2019-06-08T06:47:36.507Z,78.75
2019-06-08T06:48:36.483Z,78.75
2019-06-08T06:49:36.517Z,84.38
2019-06-08T06:50:36.462Z,90.00
2019-06-08T06:51:36.454Z,101.25
2019-06-08T06:52:36.799Z,106.88
2019-06-08T06:53:36.434Z,118.12
2019-06-08T06:54:36.421Z,118.12
2019-06-08T06:55:36.463Z,123.75
2019-06-08T06:56:36.403Z,135.00
2019-06-08T06:57:36.906Z,146.25
2019-06-08T06:58:36.376Z,146.25
2019-06-08T06:59:36.371Z,135.00
2019-06-08T07:00:36.355Z,129.38
2019-06-08T07:01:36.496Z,123.75
2019-06-08T07:02:36.785Z,129.38
2019-06-08T07:03:36.459Z,123.75
2019-06-08T07:04:36.514Z,118.12
2019-06-08T07:05:36.792Z,106.88
2019-06-08T07:06:36.527Z,112.50
2019-06-08T07:07:36.783Z,101.25
2019-06-08T07:08:36.283Z,101.25
2019-06-08T07:09:36.272Z,90.00
2019-06-08T07:10:36.267Z,90.00
2019-06-08T07:11:36.243Z,95.62
2019-06-08T07:12:36.650Z,95.62
2019-06-08T07:13:36.352Z,101.25
2019-06-08T07:14:36.213Z,123.75
2019-06-08T07:15:41.459Z,140.62
2019-06-08T07:16:37.182Z,146.25
2019-06-08T07:17:36.174Z,146.25
2019-06-08T07:18:36.200Z,135.00
2019-06-08T07:19:37.833Z,135.00
2019-06-08T07:20:36.200Z,135.00
2019-06-08T07:21:41.640Z,163.12
2019-06-08T07:22:38.074Z,185.62
2019-06-08T07:23:36.113Z,191.25
2019-06-08T07:24:36.122Z,180.00
2019-06-08T07:25:36.161Z,168.75
2019-06-08T07:26:36.092Z,163.12
2019-06-08T07:27:36.073Z,174.38
2019-06-08T07:28:36.074Z,185.62
2019-06-08T07:29:36.081Z,168.75
2019-06-08T07:30:36.145Z,163.12
2019-06-08T07:31:36.075Z,168.75
2019-06-08T07:32:36.035Z,185.62
2019-06-08T07:33:36.753Z,191.25
2019-06-08T07:34:36.013Z,191.25
2019-06-08T07:35:36.003Z,191.25
2019-06-08T07:36:36.011Z,180.00
2019-06-08T07:37:36.509Z,180.00
2019-06-08T07:38:35.952Z,185.62
2019-06-08T07:39:35.951Z,157.50
2019-06-08T07:40:35.953Z,146.25
2019-06-08T07:41:35.962Z,157.50
2019-06-08T07:42:35.968Z,168.75
2019-06-08T07:43:36.765Z,185.62
2019-06-08T07:44:35.963Z,202.50
2019-06-08T07:45:35.892Z,219.38
2019-06-08T07:46:35.872Z,196.88
2019-06-08T07:47:35.882Z,191.25
2019-06-08T07:48:35.854Z,196.88
2019-06-08T07:49:36.297Z,202.50
2019-06-08T07:50:35.834Z,191.25
2019-06-08T07:51:35.823Z,219.38
2019-06-08T07:52:35.860Z,185.62
2019-06-08T07:53:35.913Z,185.62
2019-06-08T07:54:35.782Z,180.00
2019-06-08T07:55:35.882Z,196.88
2019-06-08T07:56:35.782Z,208.12
2019-06-08T07:57:35.901Z,208.12
2019-06-08T07:58:39.524Z,202.50
2019-06-08T07:59:35.839Z,208.12
2019-06-08T08:00:35.762Z,388.12
2019-06-08T08:01:36.749Z,185.62
2019-06-08T08:02:35.722Z,168.75
2019-06-08T08:03:35.712Z,163.12
2019-06-08T08:04:35.683Z,180.00
2019-06-08T08:05:37.572Z,185.62
2019-06-08T08:06:35.734Z,180.00
2019-06-08T08:07:35.712Z,157.50
2019-06-08T08:08:36.128Z,151.88
2019-06-08T08:09:35.643Z,151.88
2019-06-08T08:10:35.648Z,140.62
2019-06-08T08:11:35.612Z,151.88
2019-06-08T08:12:35.655Z,168.75
2019-06-08T08:13:35.817Z,185.62
2019-06-08T08:14:35.603Z,191.25
2019-06-08T08:15:36.299Z,135.00
2019-06-08T08:16:35.565Z,140.62
2019-06-08T08:17:35.572Z,140.62
2019-06-08T08:18:35.600Z,140.62
2019-06-08T08:19:35.743Z,135.00
2019-06-08T08:20:35.534Z,135.00
2019-06-08T08:21:37.981Z,140.62
2019-06-08T08:22:38.010Z,135.00
2019-06-08T08:23:35.516Z,123.75
2019-06-08T08:24:35.502Z,123.75
2019-06-08T08:25:37.898Z,123.75
2019-06-08T08:26:35.451Z,129.38
2019-06-08T08:27:37.547Z,129.38
2019-06-08T08:28:37.530Z,129.38
2019-06-08T08:29:38.279Z,129.38
2019-06-08T08:30:37.865Z,135.00
2019-06-08T08:31:37.425Z,129.38
2019-06-08T08:32:37.994Z,118.12
2019-06-08T08:33:37.866Z,112.50
2019-06-08T08:34:38.163Z,118.12
2019-06-08T08:35:37.965Z,118.12
2019-06-08T08:36:38.178Z,112.50
2019-06-08T08:37:38.090Z,112.50
2019-06-08T08:38:35.371Z,112.50
2019-06-08T08:39:37.618Z,112.50
2019-06-08T08:40:38.589Z,112.50
2019-06-08T08:41:35.988Z,129.38
2019-06-08T08:42:38.590Z,151.88
2019-06-08T08:43:37.715Z,135.00
2019-06-08T08:44:37.794Z,129.38
2019-06-08T08:45:37.301Z,129.38
2019-06-08T08:46:35.281Z,118.12
2019-06-08T08:47:38.669Z,118.12
2019-06-08T08:48:37.591Z,129.38
2019-06-08T08:49:37.965Z,140.62
2019-06-08T08:50:38.822Z,151.88
2019-06-08T08:51:37.670Z,140.62
2019-06-08T08:52:40.858Z,146.25
2019-06-08T08:53:37.377Z,123.75
2019-06-08T08:54:37.554Z,123.75
2019-06-08T08:55:37.814Z,118.12
2019-06-08T08:56:38.145Z,118.12
2019-06-08T08:57:38.541Z,118.12
2019-06-08T08:58:38.074Z,112.50
2019-06-08T08:59:35.303Z,129.38
2019-06-08T09:00:38.272Z,157.50
2019-06-08T09:01:38.211Z,196.88
2019-06-08T09:02:37.304Z,208.12
2019-06-08T09:03:35.071Z,230.62
2019-06-08T09:04:38.044Z,270.00
2019-06-08T09:05:38.191Z,315.00
2019-06-08T09:06:37.947Z,303.75
2019-06-08T09:07:38.245Z,523.12
2019-06-08T09:08:37.570Z,292.50
2019-06-08T09:09:38.667Z,585.00
2019-06-08T09:10:38.110Z,331.88
2019-06-08T09:11:38.376Z,320.62
2019-06-08T09:12:37.643Z,337.50
2019-06-08T09:13:37.715Z,309.38
2019-06-08T09:14:35.502Z,376.88
2019-06-08T09:15:37.895Z,213.75
2019-06-08T09:16:38.366Z,247.50
2019-06-08T09:17:35.292Z,247.50
2019-06-08T09:18:37.494Z,258.75
2019-06-08T09:19:38.391Z,292.50
2019-06-08T09:20:38.122Z,427.50
2019-06-08T09:21:38.211Z,241.88
2019-06-08T09:22:50.214Z,208.12
2019-06-08T09:23:37.790Z,185.62
2019-06-08T09:24:35.153Z,202.50
2019-06-08T09:25:37.381Z,191.25
2019-06-08T09:26:38.060Z,151.88
2019-06-08T09:27:35.291Z,157.50
2019-06-08T09:28:38.673Z,202.50
2019-06-08T09:29:38.569Z,236.25
2019-06-08T09:30:35.296Z,281.25
2019-06-08T09:31:39.037Z,298.12
2019-06-08T09:32:38.029Z,309.38
2019-06-08T09:33:35.626Z,270.00
2019-06-08T09:34:35.303Z,281.25
2019-06-08T09:35:37.739Z,286.88
2019-06-08T09:36:37.578Z,303.75
2019-06-08T09:37:40.293Z,315.00
2019-06-08T09:38:35.219Z,556.88
2019-06-08T09:39:38.339Z,388.12
2019-06-08T09:40:38.385Z,399.38
2019-06-08T09:41:37.909Z,590.62
2019-06-08T09:42:34.691Z,270.00
2019-06-08T09:43:34.665Z,258.75
2019-06-08T09:44:37.681Z,230.62
2019-06-08T09:45:38.120Z,202.50
2019-06-08T09:46:38.367Z,180.00
2019-06-08T09:47:38.091Z,196.88
2019-06-08T09:48:38.181Z,196.88
2019-06-08T09:49:37.515Z,208.12
2019-06-08T09:50:38.741Z,275.62
2019-06-08T09:51:37.757Z,337.50
2019-06-08T09:52:40.695Z,382.50
2019-06-08T09:53:41.472Z,343.12
2019-06-08T09:54:38.434Z,286.88
2019-06-08T09:55:38.216Z,275.62
2019-06-08T09:56:37.810Z,292.50
2019-06-08T09:57:38.322Z,270.00
2019-06-08T09:58:34.515Z,264.38
2019-06-08T09:59:35.059Z,247.50
2019-06-08T10:00:37.904Z,241.88
2019-06-08T10:01:35.354Z,258.75
2019-06-08T10:02:35.222Z,264.38
2019-06-08T10:03:38.951Z,253.12
2019-06-08T10:04:38.535Z,230.62
2019-06-08T10:05:38.858Z,230.62
2019-06-08T10:06:37.773Z,241.88
2019-06-08T10:07:38.541Z,225.00
2019-06-08T10:08:38.562Z,196.88
2019-06-08T10:09:37.990Z,230.62
2019-06-08T10:10:35.272Z,270.00
2019-06-08T10:11:37.847Z,298.12
2019-06-08T10:12:38.231Z,326.25
2019-06-08T10:13:35.396Z,590.62
2019-06-08T10:14:38.037Z,275.62
2019-06-08T10:15:34.693Z,264.38
2019-06-08T10:16:38.203Z,270.00
2019-06-08T10:17:37.779Z,270.00
2019-06-08T10:18:38.485Z,303.75
2019-06-08T10:19:35.462Z,309.38
2019-06-08T10:20:38.341Z,275.62
2019-06-08T10:21:42.753Z,264.38
2019-06-08T10:22:37.473Z,247.50
2019-06-08T10:23:38.690Z,196.88
2019-06-08T10:24:38.733Z,185.62
2019-06-08T10:25:42.602Z,168.75
2019-06-08T10:26:37.651Z,151.88
2019-06-08T10:27:34.247Z,129.38
2019-06-08T10:28:34.435Z,123.75
2019-06-08T10:29:38.178Z,135.00
2019-06-08T10:30:38.282Z,157.50
2019-06-08T10:31:39.906Z,185.62
2019-06-08T10:32:38.163Z,208.12
2019-06-08T10:33:40.524Z,225.00
2019-06-08T10:34:38.792Z,236.25
2019-06-08T10:35:38.238Z,264.38
2019-06-08T10:36:40.571Z,281.25
2019-06-08T10:37:38.415Z,286.88
2019-06-08T10:38:40.915Z,281.25
2019-06-08T10:39:37.937Z,292.50
2019-06-08T10:40:38.331Z,286.88
2019-06-08T10:41:35.689Z,331.88
2019-06-08T10:42:39.857Z,343.12
2019-06-08T10:43:38.308Z,258.75
2019-06-08T10:44:38.238Z,213.75
2019-06-08T10:45:36.222Z,241.88
2019-06-08T10:46:40.359Z,174.38
2019-06-08T10:47:37.727Z,151.88
2019-06-08T10:48:37.491Z,146.25
2019-06-08T10:49:34.819Z,129.38
2019-06-08T10:50:35.942Z,118.12
2019-06-08T10:51:34.727Z,129.38
2019-06-08T10:52:38.980Z,174.38
2019-06-08T10:53:46.566Z,253.12
2019-06-08T10:54:37.831Z,331.88
2019-06-08T10:55:34.060Z,450.00
2019-06-08T10:56:38.396Z,213.75
2019-06-08T10:57:37.409Z,185.62
2019-06-08T10:58:34.393Z,219.38
2019-06-08T10:59:36.661Z,253.12
2019-06-08T11:00:38.696Z,208.12
2019-06-08T11:01:35.126Z,230.62
2019-06-08T11:02:34.207Z,230.62
2019-06-08T11:03:38.838Z,180.00
2019-06-08T11:04:38.634Z,163.12
2019-06-08T11:05:34.298Z,185.62
2019-06-08T11:06:34.294Z,219.38
2019-06-08T11:07:38.056Z,219.38
2019-06-08T11:08:38.856Z,185.62
2019-06-08T11:09:38.176Z,180.00
2019-06-08T11:10:38.263Z,208.12
2019-06-08T11:11:34.528Z,292.50
2019-06-08T11:12:34.694Z,399.38
2019-06-08T11:13:34.512Z,568.12
2019-06-08T11:14:34.103Z,382.50
2019-06-08T11:15:33.775Z,421.88
2019-06-08T11:16:34.359Z,686.25
2019-06-08T11:17:33.811Z,376.88
2019-06-08T11:18:33.839Z,433.12
2019-06-08T11:19:34.613Z,354.38
2019-06-08T11:20:34.249Z,286.88
2019-06-08T11:21:33.799Z,236.25
2019-06-08T11:22:33.622Z,196.88
2019-06-08T11:23:34.524Z,202.50
2019-06-08T11:24:34.614Z,202.50
2019-06-08T11:25:33.583Z,219.38
2019-06-08T11:26:34.318Z,196.88
2019-06-08T11:27:33.614Z,168.75
2019-06-08T11:28:33.630Z,163.12
2019-06-08T11:29:34.030Z,163.12
2019-06-08T11:30:33.570Z,191.25
2019-06-08T11:31:33.527Z,202.50
2019-06-08T11:32:33.794Z,208.12
2019-06-08T11:33:38.958Z,230.62
2019-06-08T11:34:37.705Z,236.25
2019-06-08T11:35:34.004Z,219.38
2019-06-08T11:36:34.521Z,208.12
2019-06-08T11:37:33.968Z,230.62
2019-06-08T11:38:34.574Z,258.75
2019-06-08T11:39:33.873Z,258.75
2019-06-08T11:40:33.792Z,236.25
2019-06-08T11:41:33.455Z,213.75
2019-06-08T11:42:33.419Z,202.50
2019-06-08T11:43:34.374Z,196.88
2019-06-08T11:44:33.585Z,191.25
2019-06-08T11:45:33.819Z,196.88
2019-06-08T11:46:34.601Z,196.88
2019-06-08T11:47:34.400Z,202.50
2019-06-08T11:48:33.641Z,196.88
2019-06-08T11:49:33.434Z,191.25
2019-06-08T11:50:33.553Z,174.38
2019-06-08T11:51:33.390Z,174.38
2019-06-08T11:52:33.331Z,219.38
2019-06-08T11:53:33.291Z,230.62
2019-06-08T11:54:37.475Z,185.62
2019-06-08T11:55:34.271Z,191.25
2019-06-08T11:56:33.892Z,225.00
2019-06-08T11:57:34.489Z,270.00
2019-06-08T11:58:33.309Z,270.00
2019-06-08T11:59:34.000Z,275.62
2019-06-08T12:00:33.215Z,303.75
2019-06-08T12:01:33.669Z,292.50
2019-06-08T12:02:33.958Z,315.00
2019-06-08T12:03:33.225Z,236.25
2019-06-08T12:04:48.450Z,253.12
2019-06-08T12:05:33.875Z,264.38
2019-06-08T12:06:33.170Z,270.00
2019-06-08T12:07:33.505Z,298.12
2019-06-08T12:08:33.240Z,410.62
2019-06-08T12:09:33.783Z,270.00
2019-06-08T12:10:33.125Z,315.00
2019-06-08T12:11:33.114Z,337.50
2019-06-08T12:12:33.754Z,247.50
2019-06-08T12:13:33.084Z,230.62
2019-06-08T12:14:33.731Z,270.00
2019-06-08T12:15:34.024Z,213.75
2019-06-08T12:16:33.138Z,185.62
2019-06-08T12:17:33.764Z,191.25
2019-06-08T12:18:33.039Z,208.12
2019-06-08T12:19:33.573Z,196.88
2019-06-08T12:20:33.094Z,219.38
2019-06-08T12:21:33.975Z,348.75
2019-06-08T12:22:33.725Z,337.50
2019-06-08T12:23:33.593Z,292.50
2019-06-08T12:24:42.186Z,331.88
2019-06-08T12:25:37.669Z,466.88
2019-06-08T12:26:34.036Z,292.50
2019-06-08T12:27:36.615Z,303.75
2019-06-08T12:28:34.622Z,315.00
2019-06-08T12:29:33.702Z,303.75
2019-06-08T12:30:33.985Z,309.38
2019-06-08T12:31:32.896Z,343.12
2019-06-08T12:32:32.924Z,343.12
2019-06-08T12:33:33.514Z,303.75
2019-06-08T12:34:32.871Z,433.12
2019-06-08T12:35:32.854Z,371.25
2019-06-08T12:36:32.895Z,286.88
2019-06-08T12:37:32.945Z,275.62
2019-06-08T12:38:34.659Z,270.00
2019-06-08T12:39:33.184Z,292.50
2019-06-08T12:40:37.889Z,241.88
2019-06-08T12:41:34.549Z,241.88
2019-06-08T12:42:33.419Z,275.62
2019-06-08T12:43:33.724Z,230.62
2019-06-08T12:44:32.754Z,163.12
2019-06-08T12:45:32.885Z,135.00
2019-06-08T12:46:33.706Z,135.00
2019-06-08T12:47:32.716Z,140.62